Time;durP1;ratioP1;P1;durP2;ratioP2;P2;SDS_P1;SDS_P2;PMS_P1;PMS_P2;Temp;Humidity;BMP_temperature;BMP_pressure;BME280_temperature;BME280_humidity;BME280_pressure;Samples;Min_cycle;Max_cycle;Signal;HPM_P1;HPM_P2
2022/02/15 00:01:36;;;;;;;107.90;68.00;;;;;;;-0.96;85.35;98502.75;105146;1270;61261;-71
2022/02/15 00:04:04;;;;;;;113.10;68.70;;;;;;;-1.03;85.04;98502.77;105216;1270;61266;-71
2022/02/15 00:06:30;;;;;;;114.50;64.30;;;;;;;-1.10;85.26;98501.73;105014;1274;72511;-71
2022/02/15 00:08:57;;;;;;;108.30;64.40;;;;;;;-1.13;85.74;98500.23;105158;1270;67275;-71
2022/02/15 00:11:23;;;;;;;110.70;64.10;;;;;;;-1.14;85.76;98499.75;105036;1272;61738;-71
2022/02/15 00:13:50;;;;;;;110.70;63.70;;;;;;;-1.17;85.76;98499.49;105138;1270;61179;-72
2022/02/15 00:16:17;;;;;;;109.60;62.20;;;;;;;-1.21;85.64;98502.94;105204;1270;61288;-72
2022/02/15 00:18:44;;;;;;;105.60;63.00;;;;;;;-1.27;85.57;98503.45;105173;1270;75695;-71
2022/02/15 00:21:10;;;;;;;98.40;59.20;;;;;;;-1.30;85.92;98502.64;105150;1270;61389;-72
2022/02/15 00:23:37;;;;;;;102.80;56.50;;;;;;;-1.29;86.35;98504.71;105157;1270;61394;-72
2022/02/15 00:26:03;;;;;;;98.00;58.70;;;;;;;-1.25;86.54;98501.47;105154;1270;61316;-72
2022/02/15 00:28:30;;;;;;;100.60;59.80;;;;;;;-1.21;86.62;98500.66;105164;1270;61167;-71
2022/02/15 00:30:56;;;;;;;109.50;60.00;;;;;;;-1.20;86.51;98500.79;105154;1270;75150;-72
2022/02/15 00:33:23;;;;;;;104.30;64.00;;;;;;;-1.20;86.75;98498.20;105147;1270;61196;-72
2022/02/15 00:35:50;;;;;;;121.70;68.40;;;;;;;-1.20;86.89;98501.48;104394;1270;1003639;-72
2022/02/15 00:38:17;;;;;;;109.30;65.80;;;;;;;-1.20;86.98;98494.02;105162;1270;61306;-72
2022/02/15 00:40:44;;;;;;;116.20;69.80;;;;;;;-1.24;86.87;98494.64;105147;1270;61174;-70
2022/02/15 00:43:11;;;;;;;109.60;66.00;;;;;;;-1.30;86.62;98496.55;105166;1270;75506;-71
2022/02/15 00:45:37;;;;;;;120.50;68.40;;;;;;;-1.36;86.99;98493.91;105004;1271;70302;-72
2022/02/15 00:48:04;;;;;;;118.50;68.80;;;;;;;-1.38;87.14;98496.05;104931;1271;61382;-75
2022/02/15 00:50:30;;;;;;;118.20;68.10;;;;;;;-1.39;87.40;98491.20;105165;1270;61359;-72
2022/02/15 00:52:57;;;;;;;116.30;65.30;;;;;;;-1.40;87.41;98488.46;105191;1270;61264;-71
2022/02/15 00:55:23;;;;;;;114.90;68.00;;;;;;;-1.41;87.64;98486.55;105127;1270;75385;-71
2022/02/15 00:57:50;;;;;;;108.20;66.90;;;;;;;-1.42;87.92;98483.09;105179;1270;69489;-71
2022/02/15 01:00:17;;;;;;;126.50;72.10;;;;;;;-1.42;88.01;98483.11;105157;1270;74104;-71
2022/02/15 01:02:45;;;;;;;126.30;71.00;;;;;;;-1.43;88.42;98478.24;105164;1270;61177;-71
2022/02/15 01:05:12;;;;;;;127.10;76.50;;;;;;;-1.45;88.64;98481.98;105177;1271;61173;-72
2022/02/15 01:07:39;;;;;;;132.90;73.10;;;;;;;-1.47;88.96;98478.34;105179;1270;73006;-71
2022/02/15 01:10:06;;;;;;;128.70;73.50;;;;;;;-1.49;88.93;98477.88;105202;1270;70390;-70
2022/02/15 01:12:34;;;;;;;119.30;73.00;;;;;;;-1.52;88.92;98477.29;104998;1272;71551;-73
2022/02/15 01:15:02;;;;;;;119.60;72.50;;;;;;;-1.56;89.16;98475.45;105191;1270;61397;-70
2022/02/15 01:17:29;;;;;;;116.80;69.10;;;;;;;-1.58;89.49;98471.33;105294;1270;61309;-70
2022/02/15 01:19:55;;;;;;;118.70;68.50;;;;;;;-1.59;89.58;98470.80;104879;1274;75627;-72
2022/02/15 01:22:22;;;;;;;118.50;69.60;;;;;;;-1.60;89.71;98462.67;105175;1270;61233;-72
2022/02/15 01:24:48;;;;;;;116.90;68.20;;;;;;;-1.59;90.28;98461.95;105202;1271;73157;-71
2022/02/15 01:27:15;;;;;;;113.00;67.20;;;;;;;-1.57;90.37;98460.67;105160;1271;61316;-70
2022/02/15 01:29:42;;;;;;;115.40;69.20;;;;;;;-1.54;90.53;98460.25;104899;1271;61291;-71
2022/02/15 01:32:08;;;;;;;118.00;68.50;;;;;;;-1.50;90.76;98455.98;104987;1271;75379;-71
2022/02/15 01:34:35;;;;;;;111.70;66.30;;;;;;;-1.47;91.17;98453.96;105489;1270;69018;-71
2022/02/15 01:37:02;;;;;;;108.60;63.90;;;;;;;-1.44;91.31;98452.30;105181;1270;73534;-70
2022/02/15 01:39:29;;;;;;;108.30;66.10;;;;;;;-1.42;91.47;98447.89;105163;1270;61266;-70
2022/02/15 01:41:56;;;;;;;108.00;66.40;;;;;;;-1.42;91.40;98443.90;105222;1270;61290;-70
2022/02/15 01:44:22;;;;;;;103.60;60.80;;;;;;;-1.43;91.50;98443.41;105201;1270;75115;-71
2022/02/15 01:46:49;;;;;;;106.70;63.70;;;;;;;-1.44;91.40;98440.14;104916;1274;69426;-70
2022/02/15 01:49:15;;;;;;;100.30;61.30;;;;;;;-1.46;91.45;98444.70;105172;1270;73222;-71
2022/02/15 01:51:42;;;;;;;96.60;58.20;;;;;;;-1.49;91.56;98443.91;105166;1271;61263;-71
2022/02/15 01:54:08;;;;;;;106.30;62.80;;;;;;;-1.50;92.03;98445.34;105157;1271;61273;-71
2022/02/15 01:56:35;;;;;;;93.80;58.30;;;;;;;-1.50;92.03;98443.08;105203;1271;61195;-71
2022/02/15 01:59:02;;;;;;;94.00;58.20;;;;;;;-1.47;92.60;98441.44;105182;1270;61373;-72
2022/02/15 02:01:29;;;;;;;98.50;58.60;;;;;;;-1.46;92.55;98438.96;105148;1271;73804;-71
2022/02/15 02:03:55;;;;;;;97.20;59.40;;;;;;;-1.48;92.37;98435.70;105198;1271;61260;-72
2022/02/15 02:06:22;;;;;;;107.40;61.40;;;;;;;-1.51;92.14;98432.48;105191;1271;61762;-72
2022/02/15 02:08:48;;;;;;;97.40;58.90;;;;;;;-1.57;92.29;98429.85;105195;1271;76236;-72
2022/02/15 02:11:15;;;;;;;96.60;58.20;;;;;;;-1.63;92.30;98429.83;105179;1271;68636;-72
2022/02/15 02:13:41;;;;;;;93.10;56.70;;;;;;;-1.67;92.50;98433.61;105202;1271;73082;-70
2022/02/15 02:16:08;;;;;;;88.40;55.90;;;;;;;-1.70;92.94;98432.64;105210;1271;61408;-70
2022/02/15 02:18:35;;;;;;;89.90;56.00;;;;;;;-1.70;93.17;98431.24;105171;1271;61836;-70
2022/02/15 02:21:04;;;;;;;89.40;53.30;;;;;;;-1.69;93.23;98434.00;105180;1270;61756;-73
2022/02/15 02:23:32;;;;;;;90.40;53.50;;;;;;;-1.68;93.27;98428.40;105134;1271;70224;-72
2022/02/15 02:25:58;;;;;;;85.10;55.20;;;;;;;-1.67;93.23;98429.26;105275;1271;74945;-72
2022/02/15 02:28:25;;;;;;;88.90;53.10;;;;;;;-1.67;93.31;98429.09;105220;1271;61391;-73
2022/02/15 02:30:51;;;;;;;99.60;59.10;;;;;;;-1.67;93.59;98429.06;105197;1270;61154;-71
2022/02/15 02:33:18;;;;;;;92.40;56.20;;;;;;;-1.68;93.58;98428.58;104964;1271;74154;-70
2022/02/15 02:35:45;;;;;;;96.90;57.30;;;;;;;-1.70;93.57;98430.02;105064;1271;69407;-71
2022/02/15 02:38:12;;;;;;;90.00;56.80;;;;;;;-1.72;93.62;98427.11;105297;1270;72930;-71
2022/02/15 02:40:38;;;;;;;89.10;56.40;;;;;;;-1.75;93.68;98422.85;105262;1271;61285;-71
2022/02/15 02:43:05;;;;;;;122.00;81.90;;;;;;;-1.80;93.60;98421.92;105227;1270;62047;-72
2022/02/15 02:45:31;;;;;;;109.70;67.00;;;;;;;-1.83;93.73;98420.45;105159;1271;76290;-71
2022/02/15 02:47:59;;;;;;;97.10;62.10;;;;;;;-1.84;93.89;98427.45;105184;1271;68523;-71
2022/02/15 02:50:27;;;;;;;97.50;60.70;;;;;;;-1.85;93.87;98427.61;105133;1271;73473;-72
2022/02/15 02:52:55;;;;;;;104.00;55.60;;;;;;;-1.84;94.16;98429.69;105296;1271;61304;-70
2022/02/15 02:55:22;;;;;;;96.90;55.20;;;;;;;-1.80;94.24;98430.45;105193;1271;61377;-71
2022/02/15 02:57:49;;;;;;;91.20;57.20;;;;;;;-1.76;94.45;98433.15;105326;1270;75235;-72
2022/02/15 03:00:34;;;;;;;93.70;55.10;;;;;;;-1.74;94.34;98433.42;105157;1271;69221;-72
2022/02/15 03:03:07;;;;;;;103.90;62.80;;;;;;;-1.76;94.24;98432.27;105140;1270;73166;-72
2022/02/15 03:05:35;;;;;;;109.40;66.40;;;;;;;-1.80;94.27;98429.92;105201;1271;61468;-72
2022/02/15 03:08:02;;;;;;;98.80;60.80;;;;;;;-1.83;94.14;98431.40;105182;1270;61405;-71
2022/02/15 03:10:28;;;;;;;89.30;54.60;;;;;;;-1.89;94.24;98428.77;104978;1272;75337;-71
2022/02/15 03:12:55;;;;;;;84.40;51.10;;;;;;;-1.94;94.30;98437.27;105131;1270;69262;-71
2022/02/15 03:15:21;;;;;;;87.10;53.30;;;;;;;-1.95;94.63;98437.30;105179;1271;61400;-72
2022/02/15 03:17:48;;;;;;;78.80;50.10;;;;;;;-1.95;94.65;98438.52;105141;1271;61337;-72
2022/02/15 03:20:14;;;;;;;85.20;53.70;;;;;;;-1.96;94.63;98443.77;104925;1271;61272;-72
2022/02/15 03:22:41;;;;;;;85.60;50.50;;;;;;;-1.96;94.69;98444.30;105153;1270;61352;-70
2022/02/15 03:25:08;;;;;;;81.90;51.50;;;;;;;-1.96;94.83;98443.41;105139;1271;61340;-70
2022/02/15 03:27:34;;;;;;;80.30;53.30;;;;;;;-1.94;94.84;98446.15;105126;1271;72922;-71
2022/02/15 03:30:01;;;;;;;85.90;55.50;;;;;;;-1.91;94.93;98447.29;105152;1271;61318;-71
2022/02/15 03:32:28;;;;;;;90.20;56.30;;;;;;;-1.88;94.96;98449.13;105174;1270;61282;-71
2022/02/15 03:34:54;;;;;;;89.10;53.80;;;;;;;-1.87;95.05;98452.92;105166;1271;74613;-70
2022/02/15 03:37:21;;;;;;;86.80;56.70;;;;;;;-1.86;95.00;98448.38;105173;1271;61360;-71
2022/02/15 03:39:47;;;;;;;90.60;55.10;;;;;;;-1.86;94.97;98447.88;105154;1271;61162;-70
2022/02/15 03:44:59;;;;;;;90.00;55.20;;;;;;;-1.91;94.89;98451.46;105165;1270;61889;-71
2022/02/15 03:47:25;;;;;;;83.20;54.00;;;;;;;-1.94;94.89;98450.33;105159;1270;76161;-71
2022/02/15 03:49:52;;;;;;;81.00;50.60;;;;;;;-1.96;94.94;98452.10;105124;1271;70122;-71
2022/02/15 03:52:19;;;;;;;78.70;51.20;;;;;;;-1.97;94.90;98452.33;105131;1270;73234;-72
2022/02/15 03:54:45;;;;;;;81.10;50.10;;;;;;;-1.99;94.92;98450.80;105163;1270;61294;-72
2022/02/15 03:57:11;;;;;;;83.50;50.10;;;;;;;-1.99;95.10;98448.38;105110;1270;61175;-70
2022/02/15 03:59:38;;;;;;;83.90;51.20;;;;;;;-1.98;95.20;98451.80;105119;1270;61259;-72
2022/02/15 04:02:05;;;;;;;83.40;52.90;;;;;;;-1.98;95.25;98452.33;105169;1270;69229;-71
2022/02/15 04:04:32;;;;;;;89.30;54.50;;;;;;;-1.96;95.53;98444.12;105176;1270;74372;-71
2022/02/15 04:06:58;;;;;;;85.60;55.10;;;;;;;-1.97;95.35;98445.00;104965;1271;61444;-70
2022/02/15 04:09:25;;;;;;;86.50;56.20;;;;;;;-1.98;95.53;98448.67;105151;1270;61340;-72
2022/02/15 04:11:52;;;;;;;83.90;53.10;;;;;;;-1.99;95.49;98452.89;105142;1271;76288;-70
2022/02/15 04:14:18;;;;;;;85.60;53.90;;;;;;;-2.01;95.77;98452.23;105158;1270;61251;-71
2022/02/15 04:16:45;;;;;;;79.90;48.60;;;;;;;-2.01;95.77;98454.66;105131;1270;71669;-71
2022/02/15 04:19:11;;;;;;;84.10;51.50;;;;;;;-2.01;95.99;98462.33;105122;1270;61394;-71
2022/02/15 04:21:38;;;;;;;72.80;46.40;;;;;;;-2.00;96.01;98467.71;105168;1270;61279;-71
2022/02/15 04:24:04;;;;;;;83.70;50.30;;;;;;;-1.98;96.02;98471.31;105129;1270;76082;-71
2022/02/15 04:26:31;;;;;;;73.70;46.60;;;;;;;-1.97;96.13;98477.73;105091;1270;69464;-71
2022/02/15 04:28:58;;;;;;;76.10;48.60;;;;;;;-1.96;96.17;98479.80;105150;1270;72188;-71
2022/02/15 04:31:25;;;;;;;80.50;50.50;;;;;;;-1.93;96.38;98473.64;105182;1270;61352;-71
2022/02/15 04:33:51;;;;;;;86.00;51.40;;;;;;;-1.91;96.53;98473.41;105151;1270;61317;-71
2022/02/15 04:36:18;;;;;;;79.70;51.30;;;;;;;-1.92;96.42;98482.67;104898;1270;76267;-71
2022/02/15 04:38:44;;;;;;;93.00;55.90;;;;;;;-1.98;96.22;98478.80;105121;1270;61270;-71
2022/02/15 04:41:11;;;;;;;87.00;55.40;;;;;;;-2.03;96.22;98480.83;104472;1271;1003581;-70
2022/02/15 04:43:37;;;;;;;94.40;57.70;;;;;;;-2.09;96.19;98475.23;104963;1271;61407;-71
2022/02/15 04:46:04;;;;;;;87.70;56.40;;;;;;;-2.16;96.26;98474.71;105143;1270;61225;-71
2022/02/15 04:48:30;;;;;;;85.70;56.10;;;;;;;-2.21;96.27;98478.32;105144;1270;61190;-71
2022/02/15 04:50:57;;;;;;;94.20;56.60;;;;;;;-2.26;96.38;98471.13;105152;1270;70144;-71
2022/02/15 04:53:23;;;;;;;85.10;54.30;;;;;;;-2.28;96.67;98472.74;105116;1270;61337;-71
2022/02/15 04:55:50;;;;;;;89.70;54.80;;;;;;;-2.29;96.81;98471.55;105150;1270;61336;-71
2022/02/15 04:58:17;;;;;;;85.90;56.90;;;;;;;-2.30;96.89;98465.98;105184;1270;61216;-72
2022/02/15 05:00:45;;;;;;;89.10;58.70;;;;;;;-2.29;96.88;98463.89;104908;1270;75369;-71
2022/02/15 05:03:11;;;;;;;83.50;56.20;;;;;;;-2.30;97.01;98463.03;105146;1270;69422;-72
2022/02/15 05:05:38;;;;;;;89.70;57.30;;;;;;;-2.29;97.12;98469.63;104418;1270;1003869;-71
2022/02/15 05:08:05;;;;;;;93.40;61.10;;;;;;;-2.29;97.27;98476.91;105148;1270;61267;-71
2022/02/15 05:10:31;;;;;;;92.10;59.80;;;;;;;-2.30;97.27;98474.70;105147;1270;61278;-71
2022/02/15 05:12:58;;;;;;;88.20;58.60;;;;;;;-2.32;97.34;98476.65;104934;1270;61500;-71
2022/02/15 05:15:24;;;;;;;96.40;60.40;;;;;;;-2.35;97.51;98476.55;105180;1270;69501;-71
2022/02/15 05:17:51;;;;;;;97.40;63.90;;;;;;;-2.35;97.88;98476.04;105141;1270;74626;-71
2022/02/15 05:20:18;;;;;;;93.90;59.10;;;;;;;-2.36;97.88;98475.73;105124;1270;61276;-71
2022/02/15 05:22:45;;;;;;;94.60;57.90;;;;;;;-2.35;97.93;98474.13;105122;1270;61282;-71
2022/02/15 05:25:13;;;;;;;96.20;61.10;;;;;;;-2.34;98.10;98479.13;105178;1270;75203;-71
2022/02/15 05:27:41;;;;;;;101.90;65.00;;;;;;;-2.33;98.26;98479.29;105137;1270;69144;-73
2022/02/15 05:30:08;;;;;;;102.80;63.40;;;;;;;-2.31;98.50;98482.21;105115;1270;73391;-72
2022/02/15 05:32:36;;;;;;;108.40;64.30;;;;;;;-2.30;98.59;98479.92;104955;1271;61324;-72
2022/02/15 05:35:04;;;;;;;98.70;61.90;;;;;;;-2.30;98.77;98483.05;105145;1270;61205;-72
2022/02/15 05:37:31;;;;;;;97.50;59.60;;;;;;;-2.29;99.19;98487.52;105146;1270;76269;-70
2022/02/15 05:39:57;;;;;;;88.10;57.20;;;;;;;-2.26;99.25;98496.20;105119;1270;61356;-71
2022/02/15 05:42:24;;;;;;;88.50;56.80;;;;;;;-2.25;99.22;98498.23;105027;1270;73651;-70
2022/02/15 05:44:50;;;;;;;92.20;54.10;;;;;;;-2.23;99.56;98499.60;105138;1270;61246;-70
2022/02/15 05:47:17;;;;;;;83.00;53.30;;;;;;;-2.20;99.67;98501.77;105159;1270;61203;-71
2022/02/15 05:52:29;;;;;;;88.50;53.60;;;;;;;-2.12;99.87;98506.63;105128;1269;69397;-70
2022/02/15 05:54:55;;;;;;;81.70;52.60;;;;;;;-2.09;99.76;98508.14;105121;1270;73449;-71
2022/02/15 05:57:22;;;;;;;99.30;58.20;;;;;;;-2.08;99.52;98510.02;105158;1270;61298;-71
2022/02/15 05:59:49;;;;;;;89.40;59.70;;;;;;;-2.07;99.62;98507.38;105209;1270;62006;-71
2022/02/15 06:02:15;;;;;;;92.00;56.80;;;;;;;-2.05;99.64;98514.13;105176;1270;74908;-72
2022/02/15 06:04:43;;;;;;;95.90;58.90;;;;;;;-2.03;99.63;98510.42;105187;1270;70342;-72
2022/02/15 06:07:09;;;;;;;90.80;57.80;;;;;;;-2.02;99.54;98514.56;104968;1271;73643;-72
2022/02/15 06:09:36;;;;;;;92.80;61.10;;;;;;;-2.04;99.22;98520.36;104972;1270;61364;-72
2022/02/15 06:12:03;;;;;;;95.50;61.50;;;;;;;-2.06;99.12;98523.73;105158;1270;61166;-72
2022/02/15 06:14:29;;;;;;;94.90;62.40;;;;;;;-2.06;99.43;98523.20;105187;1270;76680;-69
2022/02/15 06:16:56;;;;;;;88.30;56.50;;;;;;;-2.04;99.42;98530.98;104931;1271;70423;-72
2022/02/15 06:19:22;;;;;;;90.50;57.20;;;;;;;-2.02;99.19;98538.78;105211;1270;61265;-70
2022/02/15 06:21:49;;;;;;;88.80;56.20;;;;;;;-2.02;99.16;98543.99;105181;1270;61315;-75
2022/02/15 06:24:17;;;;;;;84.40;56.00;;;;;;;-1.95;99.40;98543.14;105155;1270;61365;-71
2022/02/15 06:26:44;;;;;;;92.50;60.00;;;;;;;-1.89;99.14;98545.09;105195;1270;76367;-72
2022/02/15 06:29:11;;;;;;;89.40;58.90;;;;;;;-1.84;99.03;98552.96;105202;1270;69505;-72
2022/02/15 06:31:38;;;;;;;107.60;63.40;;;;;;;-1.78;99.00;98556.84;105196;1270;74073;-72
2022/02/15 06:34:07;;;;;;;106.60;66.00;;;;;;;-1.74;98.74;98551.69;104886;1272;61245;-73
2022/02/15 06:36:34;;;;;;;101.20;61.40;;;;;;;-1.71;98.72;98552.48;105217;1270;61337;-71
2022/02/15 06:39:01;;;;;;;97.70;64.30;;;;;;;-1.73;98.39;98553.23;105213;1270;76330;-72
2022/02/15 06:41:28;;;;;;;103.00;66.00;;;;;;;-1.77;97.99;98549.13;105190;1270;69095;-71
2022/02/15 06:43:54;;;;;;;107.90;65.20;;;;;;;-1.78;97.95;98552.30;105174;1270;74090;-72
2022/02/15 06:46:21;;;;;;;102.90;67.30;;;;;;;-1.77;98.03;98558.38;105152;1270;61477;-72
2022/02/15 06:48:47;;;;;;;111.30;71.80;;;;;;;-1.71;98.13;98564.16;105164;1270;61798;-70
2022/02/15 06:51:14;;;;;;;123.00;81.90;;;;;;;-1.63;98.29;98567.96;105211;1270;61391;-72
2022/02/15 06:53:41;;;;;;;121.80;79.10;;;;;;;-1.56;98.45;98570.57;105239;1270;69155;-71
2022/02/15 06:56:09;;;;;;;125.40;81.20;;;;;;;-1.44;98.42;98568.71;105048;1270;73644;-71
2022/02/15 06:58:36;;;;;;;121.80;77.70;;;;;;;-1.34;98.41;98565.13;105281;1270;61321;-71
2022/02/15 07:01:04;;;;;;;116.30;77.90;;;;;;;-1.26;98.30;98564.58;105209;1270;61190;-71
2022/02/15 07:03:30;;;;;;;118.30;76.20;;;;;;;-1.20;98.18;98573.83;105206;1270;75788;-72
2022/02/15 07:05:57;;;;;;;113.90;74.10;;;;;;;-1.16;98.07;98575.98;104492;1270;1003165;-71
2022/02/15 07:08:23;;;;;;;107.80;72.70;;;;;;;-1.09;98.05;98576.67;105172;1270;61283;-71
2022/02/15 07:10:54;;;;;;;112.00;74.50;;;;;;;-1.02;97.98;98578.08;105217;1270;61301;-73
2022/02/15 07:13:22;;;;;;;120.90;77.10;;;;;;;-0.92;97.88;98580.95;105239;1270;61173;-72
2022/02/15 07:15:49;;;;;;;110.90;73.50;;;;;;;-0.82;97.88;98581.35;104999;1270;75048;-72
2022/02/15 07:18:15;;;;;;;115.70;72.00;;;;;;;-0.71;97.84;98578.77;105112;1270;70066;-71
2022/02/15 07:20:42;;;;;;;102.70;69.70;;;;;;;-0.62;97.63;98581.84;105203;1270;72903;-72
2022/02/15 07:23:10;;;;;;;107.00;71.70;;;;;;;-0.54;97.55;98587.55;105206;1270;61268;-72
2022/02/15 07:25:37;;;;;;;107.00;71.70;;;;;;;-0.44;97.55;98590.04;104913;1272;61353;-72
2022/02/15 07:28:04;;;;;;;101.80;67.10;;;;;;;-0.34;97.39;98593.42;105261;1270;75212;-72
2022/02/15 07:30:31;;;;;;;103.30;68.60;;;;;;;-0.24;97.20;98588.06;105269;1270;70382;-71
2022/02/15 07:32:59;;;;;;;112.30;71.80;;;;;;;-0.12;97.08;98589.63;105033;1271;72581;-72
2022/02/15 07:35:25;;;;;;;105.80;68.90;;;;;;;-0.02;96.95;98589.50;105210;1270;61211;-71
2022/02/15 07:37:52;;;;;;;103.70;69.70;;;;;;;0.09;96.75;98591.06;105239;1270;61315;-71
2022/02/15 07:40:21;;;;;;;102.60;68.40;;;;;;;0.21;96.47;98592.09;104932;1270;75405;-72
2022/02/15 07:42:49;;;;;;;109.70;71.60;;;;;;;0.32;96.36;98597.48;105254;1270;70102;-71
2022/02/15 07:45:18;;;;;;;107.80;69.60;;;;;;;0.38;96.02;98603.08;105252;1270;73414;-71
2022/02/15 07:47:46;;;;;;;102.50;67.50;;;;;;;0.44;95.72;98612.50;105217;1270;61281;-71
2022/02/15 07:50:14;;;;;;;107.00;71.30;;;;;;;0.52;95.47;98606.48;105322;1271;61361;-72
2022/02/15 07:52:41;;;;;;;114.00;71.50;;;;;;;0.62;95.28;98604.91;105329;1270;76161;-71
2022/02/15 07:55:08;;;;;;;108.60;71.20;;;;;;;0.75;95.04;98599.95;105264;1270;70371;-71
2022/02/15 07:57:34;;;;;;;105.30;70.40;;;;;;;0.88;94.92;98597.42;105219;1270;73329;-71
2022/02/15 08:00:01;;;;;;;102.20;67.40;;;;;;;1.00;94.70;98604.54;105284;1270;61256;-71
2022/02/15 08:02:27;;;;;;;96.10;63.50;;;;;;;1.10;94.43;98601.38;105036;1270;61392;-69
2022/02/15 08:04:54;;;;;;;94.40;64.50;;;;;;;1.18;94.17;98602.86;105223;1270;61302;-70
2022/02/15 08:07:21;;;;;;;96.90;64.20;;;;;;;1.25;94.15;98605.39;105227;1270;69173;-72
2022/02/15 08:09:48;;;;;;;89.40;62.60;;;;;;;1.35;94.14;98611.87;105166;1270;74412;-72
2022/02/15 08:12:18;;;;;;;90.50;62.40;;;;;;;1.44;94.00;98612.23;105187;1270;61390;-72
2022/02/15 08:14:45;;;;;;;86.50;61.30;;;;;;;1.54;93.77;98607.84;105226;1270;61366;-72
2022/02/15 08:17:12;;;;;;;91.20;61.10;;;;;;;1.64;93.56;98608.02;105368;1270;74733;-71
2022/02/15 08:19:39;;;;;;;89.10;60.50;;;;;;;1.72;93.40;98609.09;105187;1270;68586;-73
2022/02/15 08:22:06;;;;;;;85.20;58.60;;;;;;;1.83;93.14;98612.92;105177;1270;73163;-71
2022/02/15 08:24:32;;;;;;;82.10;56.90;;;;;;;1.94;93.07;98613.70;105156;1270;61284;-71
2022/02/15 08:27:00;;;;;;;94.00;58.20;;;;;;;2.07;92.82;98619.17;105219;1270;61282;-72
2022/02/15 08:29:28;;;;;;;91.50;61.70;;;;;;;2.19;92.50;98618.71;105175;1270;75289;-71
2022/02/15 08:31:55;;;;;;;102.00;67.30;;;;;;;2.30;92.35;98620.58;105146;1270;69164;-73
2022/02/15 08:34:22;;;;;;;95.40;67.20;;;;;;;2.40;91.98;98618.43;105038;1270;72543;-70
2022/02/15 08:36:48;;;;;;;93.70;67.80;;;;;;;2.51;91.90;98612.73;105032;1270;61358;-70
2022/02/15 08:39:15;;;;;;;100.40;65.30;;;;;;;2.63;91.77;98607.67;105270;1270;61417;-71
2022/02/15 08:41:42;;;;;;;79.50;53.40;;;;;;;2.74;91.53;98607.55;105241;1270;76254;-71
2022/02/15 08:44:08;;;;;;;65.60;45.20;;;;;;;2.83;91.18;98607.16;105132;1270;69161;-71
2022/02/15 08:46:35;;;;;;;66.50;47.50;;;;;;;2.93;91.06;98607.13;105230;1270;73259;-71
2022/02/15 08:49:02;;;;;;;72.10;49.20;;;;;;;3.05;91.10;98602.77;105235;1270;61323;-70
2022/02/15 08:51:29;;;;;;;74.20;53.80;;;;;;;3.16;90.79;98600.70;105041;1270;61349;-70
2022/02/15 08:53:55;;;;;;;79.50;53.10;;;;;;;3.26;90.53;98602.02;104983;1270;73883;-70
2022/02/15 08:56:22;;;;;;;69.90;50.40;;;;;;;3.36;90.23;98602.28;105267;1270;69551;-70
2022/02/15 08:58:49;;;;;;;71.90;47.40;;;;;;;3.44;90.00;98597.90;105226;1270;73360;-71
2022/02/15 09:01:16;;;;;;;67.90;49.00;;;;;;;3.55;89.87;98602.34;105178;1270;61159;-71
2022/02/15 09:03:42;;;;;;;68.60;47.50;;;;;;;3.67;89.74;98606.70;105198;1270;61262;-71
2022/02/15 09:06:10;;;;;;;64.50;46.50;;;;;;;3.79;89.48;98604.06;105261;1270;76206;-71
2022/02/15 09:08:36;;;;;;;69.50;46.00;;;;;;;3.92;89.18;98603.45;105256;1270;69397;-71
2022/02/15 09:11:03;;;;;;;72.10;47.50;;;;;;;4.05;88.99;98606.52;105241;1270;73287;-70
2022/02/15 09:13:30;;;;;;;69.70;47.20;;;;;;;4.18;88.75;98603.44;105185;1269;61395;-70
2022/02/15 09:15:57;;;;;;;72.10;51.60;;;;;;;4.29;88.09;98605.59;104954;1270;61570;-70
2022/02/15 09:18:23;;;;;;;67.70;48.40;;;;;;;4.36;87.85;98603.47;105212;1270;74841;-71
2022/02/15 09:20:50;;;;;;;64.70;48.50;;;;;;;4.48;87.97;98602.04;105088;1270;70390;-70
2022/02/15 09:23:17;;;;;;;66.70;46.00;;;;;;;4.62;87.83;98601.89;105134;1270;71667;-69
2022/02/15 09:25:43;;;;;;;59.50;44.80;;;;;;;4.74;87.42;98601.14;105139;1270;61194;-71
2022/02/15 09:28:10;;;;;;;65.40;45.70;;;;;;;4.87;86.99;98603.83;105270;1270;61317;-69
2022/02/15 09:30:36;;;;;;;59.20;44.10;;;;;;;5.03;86.93;98599.14;105182;1270;76660;-71
2022/02/15 09:33:04;;;;;;;64.80;46.10;;;;;;;5.21;86.57;98597.70;105229;1270;69167;-71
2022/02/15 09:35:31;;;;;;;62.20;46.30;;;;;;;5.39;86.10;98604.36;105425;1270;73532;-71
2022/02/15 09:37:57;;;;;;;75.80;50.60;;;;;;;5.51;84.81;98607.74;105189;1270;61357;-71
2022/02/15 09:40:24;;;;;;;71.50;51.20;;;;;;;5.59;84.41;98608.22;105205;1270;61365;-71
2022/02/15 09:42:51;;;;;;;70.60;50.70;;;;;;;5.64;83.60;98610.04;104990;1270;73334;-71
2022/02/15 09:45:17;;;;;;;72.90;51.80;;;;;;;5.69;83.33;98608.02;105188;1270;70196;-71
2022/02/15 09:47:44;;;;;;;50.30;36.10;;;;;;;5.80;83.42;98604.11;105183;1270;74301;-71
2022/02/15 09:50:11;;;;;;;40.90;31.00;;;;;;;5.90;83.24;98609.92;105243;1270;61356;-71
2022/02/15 09:52:45;;;;;;;53.40;40.80;;;;;;;5.96;82.72;98608.02;105182;1270;61318;-70
2022/02/15 09:55:13;;;;;;;61.00;37.70;;;;;;;6.01;82.05;98611.30;105179;1270;75260;-71
2022/02/15 09:57:39;;;;;;;49.80;38.20;;;;;;;6.05;81.30;98618.31;105152;1270;70297;-70
2022/02/15 10:00:07;;;;;;;55.10;41.50;;;;;;;6.09;81.28;98620.55;105208;1269;72473;-71
2022/02/15 10:02:37;;;;;;;53.30;41.30;;;;;;;6.12;80.86;98624.95;105163;1270;61309;-71
2022/02/15 10:05:04;;;;;;;61.40;43.70;;;;;;;6.20;80.92;98624.52;105191;1270;61355;-70
2022/02/15 10:07:31;;;;;;;63.80;45.50;;;;;;;6.29;80.71;98621.93;105088;1270;76326;-71
2022/02/15 10:09:59;;;;;;;62.80;45.60;;;;;;;6.37;80.61;98622.53;105195;1270;70289;-70
2022/02/15 10:12:26;;;;;;;55.10;40.90;;;;;;;6.45;80.50;98616.81;105193;1269;73276;-70
2022/02/15 10:14:54;;;;;;;58.70;41.60;;;;;;;6.48;80.31;98614.35;104922;1270;61383;-70
2022/02/15 10:17:23;;;;;;;61.80;44.80;;;;;;;6.52;80.20;98611.11;105211;1270;61611;-71
2022/02/15 10:19:51;;;;;;;67.70;46.80;;;;;;;6.58;79.87;98608.80;105237;1270;75019;-69
2022/02/15 10:22:19;;;;;;;60.50;44.90;;;;;;;6.65;79.52;98610.52;105053;1270;69256;-71
2022/02/15 10:24:51;;;;;;;66.20;46.60;;;;;;;6.71;79.45;98609.67;105173;1270;74173;-71
2022/02/15 10:27:19;;;;;;;64.00;45.20;;;;;;;6.81;79.22;98609.45;105236;1270;61403;-71
2022/02/15 10:29:46;;;;;;;59.80;42.50;;;;;;;6.89;78.70;98603.67;105144;1270;61242;-70
2022/02/15 10:32:20;;;;;;;60.70;42.90;;;;;;;6.89;77.77;98603.86;105136;1270;76336;-70
2022/02/15 10:34:50;;;;;;;60.30;44.10;;;;;;;6.89;76.85;98596.83;105316;1269;69456;-69
2022/02/15 10:37:17;;;;;;;61.50;42.40;;;;;;;6.86;76.83;98601.40;105427;1270;73212;-70
2022/02/15 10:39:47;;;;;;;66.10;46.30;;;;;;;6.90;77.15;98599.23;105071;1270;61377;-71
2022/02/15 10:42:22;;;;;;;59.40;43.40;;;;;;;6.98;77.00;98600.54;105190;1270;61353;-71
2022/02/15 10:44:53;;;;;;;60.60;43.60;;;;;;;7.03;76.54;98602.14;105127;1270;75614;-69
2022/02/15 10:47:21;;;;;;;60.60;43.90;;;;;;;7.10;76.36;98597.19;105202;1270;70792;-70
2022/02/15 10:49:49;;;;;;;59.10;42.70;;;;;;;7.21;76.65;98598.79;105190;1270;73410;-70
2022/02/15 10:52:16;;;;;;;62.40;42.60;;;;;;;7.39;76.65;98592.77;105168;1270;61304;-70
2022/02/15 10:54:43;;;;;;;58.50;43.00;;;;;;;7.56;76.30;98593.16;105185;1270;61306;-70
2022/02/15 10:57:14;;;;;;;56.00;41.80;;;;;;;7.68;76.00;98595.44;105015;1270;75242;-70
2022/02/15 10:59:42;;;;;;;59.30;41.40;;;;;;;7.75;75.71;98593.40;105035;1270;67904;-72
2022/02/15 11:02:20;;;;;;;59.20;42.20;;;;;;;7.83;75.26;98593.10;105215;1270;74399;-70
2022/02/15 11:04:48;;;;;;;58.10;40.40;;;;;;;7.87;74.01;98593.55;105199;1270;61328;-70
2022/02/15 11:07:17;;;;;;;59.20;42.30;;;;;;;7.89;74.28;98595.88;105276;1269;61603;-70
2022/02/15 11:10:01;;;;;;;62.20;47.70;;;;;;;7.97;74.33;98595.77;105231;1270;74589;-70
2022/02/15 11:12:46;;;;;;;58.10;42.90;;;;;;;8.09;74.25;98600.30;105006;1270;70734;-69
2022/02/15 11:15:18;;;;;;;60.30;43.90;;;;;;;8.20;74.13;98602.44;105172;1270;74580;-70